Time;durP1;ratioP1;P1;durP2;ratioP2;P2;SDS_P1;SDS_P2;PMS_P1;PMS_P2;Temp;Humidity;BMP_temperature;BMP_pressure;BME280_temperature;BME280_humidity;BME280_pressure;Samples;Min_cycle;Max_cycle;Signal;HPM_P1;HPM_P2
2022/09/02 00:00:48;;;;;;;;;6.75;6.75;;;;;25.03;36.01;100635.03;5077589;28;45419;-53
2022/09/02 00:03:13;;;;;;;;;10.00;8.40;;;;;24.91;35.66;100624.31;5059663;28;45453;-50
2022/09/02 00:05:39;;;;;;;;;7.25;6.50;;;;;24.99;35.67;100628.38;5077709;28;45277;-54
2022/09/02 00:08:05;;;;;;;;;9.00;9.00;;;;;24.93;35.71;100627.69;5078195;28;45317;-51
2022/09/02 00:10:31;;;;;;;;;7.75;7.50;;;;;24.95;36.04;100621.72;5077503;28;46728;-50
2022/09/02 00:12:57;;;;;;;;;7.00;7.00;;;;;24.88;35.99;100608.94;5075916;28;45860;-54
2022/09/02 00:15:22;;;;;;;;;6.25;6.25;;;;;24.92;36.14;100616.75;5059613;28;45308;-54
2022/09/02 00:17:48;;;;;;;;;8.00;8.00;;;;;24.72;36.11;100590.75;5077922;28;45448;-50
2022/09/02 00:20:13;;;;;;;;;9.50;9.50;;;;;24.73;36.31;100592.41;5077058;28;45497;-54
2022/09/02 00:22:39;;;;;;;;;5.00;5.00;;;;;24.89;36.27;100606.97;5077406;28;45563;-53
2022/09/02 00:25:05;;;;;;;;;9.00;9.00;;;;;24.73;36.04;100584.81;5076204;27;45471;-51
2022/09/02 00:27:30;;;;;;;;;10.00;9.00;;;;;24.72;36.41;100579.53;5059713;28;45556;-50
2022/09/02 00:29:56;;;;;;;;;9.00;9.00;;;;;24.85;36.83;100594.69;5077034;28;46665;-49
2022/09/02 00:32:21;;;;;;;;;8.50;8.00;;;;;24.86;36.64;100597.19;5077628;28;45381;-52
2022/09/02 00:34:47;;;;;;;;;7.00;7.00;;;;;24.66;36.12;100563.94;5077785;28;45751;-53
2022/09/02 00:37:13;;;;;;;;;14.00;11.40;;;;;24.64;37.16;100572.66;5077713;28;45330;-53
2022/09/02 00:39:38;;;;;;;;;8.00;8.00;;;;;24.74;36.78;100589.28;5076923;28;45642;-50
2022/09/02 00:42:05;;;;;;;;;8.50;8.00;;;;;24.72;36.85;100591.59;5059397;28;45450;-53
2022/09/02 00:44:31;;;;;;;;;10.00;10.00;;;;;24.55;37.29;100569.75;5077388;28;45316;-51
2022/09/02 00:46:56;;;;;;;;;10.75;8.00;;;;;24.53;37.20;100568.41;5059202;28;45505;-50
2022/09/02 00:49:24;;;;;;;;;8.50;8.50;;;;;24.62;37.29;100587.00;5027600;28;45716;-55
2022/09/02 00:52:06;;;;;;;;;10.60;9.00;;;;;24.70;37.53;100593.84;5042685;28;45370;-52
2022/09/02 00:54:36;;;;;;;;;9.00;7.60;;;;;24.69;37.24;100580.97;5059213;28;45476;-54
2022/09/02 00:57:02;;;;;;;;;8.60;8.60;;;;;24.58;37.12;100573.91;5059650;28;45407;-51
2022/09/02 00:59:37;;;;;;;;;10.20;10.20;;;;;24.68;37.71;100598.94;5076955;28;45817;-53
2022/09/02 01:02:02;;;;;;;;;9.20;8.20;;;;;24.65;37.48;100593.94;5077474;28;45290;-53
2022/09/02 01:04:28;;;;;;;;;10.75;9.00;;;;;24.55;37.35;100583.75;5076993;28;45381;-51
2022/09/02 01:06:53;;;;;;;;;9.75;8.75;;;;;24.59;37.24;100584.00;5077269;28;45436;-49
2022/09/02 01:09:19;;;;;;;;;9.00;9.00;;;;;24.55;37.63;100580.97;5058575;28;46957;-50
2022/09/02 01:11:48;;;;;;;;;7.25;5.75;;;;;24.47;37.49;100574.13;5063684;28;45283;-54
2022/09/02 01:14:14;;;;;;;;;7.60;7.20;;;;;24.59;37.97;100584.00;5059282;28;45374;-54
2022/09/02 01:16:45;;;;;;;;;9.00;8.00;;;;;24.56;37.69;100591.06;5077405;28;45384;-50
2022/09/02 01:19:24;;;;;;;;;8.60;8.60;;;;;24.49;37.65;100580.25;5058717;28;46128;-51
2022/09/02 01:21:51;;;;;;;;;10.40;9.60;;;;;24.34;38.31;100560.91;5076419;28;45421;-53
2022/09/02 01:24:16;;;;;;;;;8.00;8.00;;;;;24.45;37.94;100579.19;5078858;27;45367;-52
2022/09/02 01:26:42;;;;;;;;;8.50;8.50;;;;;24.46;38.00;100580.88;5079020;27;45328;-50
2022/09/02 01:29:07;;;;;;;;;9.75;8.00;;;;;24.42;38.35;100579.81;5095216;27;45837;-52
2022/09/02 01:31:33;;;;;;;;;10.25;9.25;;;;;24.45;38.49;100583.97;5096766;27;45347;-52
2022/09/02 01:33:58;;;;;;;;;7.25;7.25;;;;;24.41;38.53;100580.13;5096613;27;45329;-54
2022/09/02 01:36:24;;;;;;;;;7.50;7.25;;;;;24.29;38.15;100555.41;5095365;27;45436;-54
2022/09/02 01:38:49;;;;;;;;;9.00;9.00;;;;;24.42;38.35;100577.03;5096398;27;46455;-53
2022/09/02 01:41:15;;;;;;;;;9.25;8.75;;;;;24.43;38.67;100575.06;5096467;27;45389;-50
2022/09/02 01:43:40;;;;;;;;;8.00;8.00;;;;;24.40;38.60;100570.91;5096656;27;45310;-48
2022/09/02 01:46:06;;;;;;;;;9.25;9.25;;;;;24.37;38.86;100565.88;5096823;27;45243;-51
2022/09/02 01:48:31;;;;;;;;;7.50;7.50;;;;;24.38;38.70;100566.75;5096045;27;47350;-49
2022/09/02 01:50:58;;;;;;;;;7.00;6.25;;;;;24.25;38.75;100543.13;5097018;27;45761;-53
2022/09/02 01:53:24;;;;;;;;;9.20;8.40;;;;;24.37;38.70;100560.28;5096589;27;45373;-50
2022/09/02 01:55:49;;;;;;;;;8.75;8.50;;;;;24.31;38.72;100558.72;5096522;27;45535;-49
2022/09/02 01:58:15;;;;;;;;;8.75;8.75;;;;;24.39;38.53;100569.25;5096405;27;46532;-51
2022/09/02 02:00:41;;;;;;;;;8.00;7.00;;;;;24.40;38.53;100595.28;5096049;27;45810;-51
2022/09/02 02:03:06;;;;;;;;;9.75;8.75;;;;;24.32;39.10;100622.06;5085986;27;45457;-53
2022/09/02 02:05:32;;;;;;;;;9.75;8.00;;;;;24.33;39.19;100624.56;5117367;27;45298;-50
2022/09/02 02:07:57;;;;;;;;;7.00;6.50;;;;;24.21;39.07;100582.16;5116672;27;46030;-52
2022/09/02 02:10:23;;;;;;;;;7.00;7.00;;;;;24.18;38.66;100619.25;5116666;27;45329;-51
2022/09/02 02:12:48;;;;;;;;;8.75;8.75;;;;;24.01;38.90;100589.78;5099347;27;45353;-51
2022/09/02 02:15:15;;;;;;;;;5.00;5.00;;;;;24.04;38.61;100555.53;5096397;27;45463;-51
2022/09/02 02:17:41;;;;;;;;;8.80;8.20;;;;;24.16;38.68;100599.09;5096022;27;46481;-50
2022/09/02 02:20:07;;;;;;;;;5.50;5.50;;;;;24.13;39.28;100637.00;5078054;27;45177;-54
2022/09/02 02:22:33;;;;;;;;;7.00;7.00;;;;;24.10;38.86;100598.34;5095994;27;45423;-54
2022/09/02 02:24:58;;;;;;;;;8.00;7.75;;;;;23.88;39.11;100585.81;5096011;27;45597;-52
2022/09/02 02:27:24;;;;;;;;;8.50;7.50;;;;;23.90;39.04;100572.31;5077672;27;45504;-54
2022/09/02 02:29:49;;;;;;;;;10.00;8.00;;;;;24.12;39.21;100612.88;5095786;27;45410;-53
2022/09/02 02:32:17;;;;;;;;;8.00;8.00;;;;;24.14;38.94;100613.44;5096066;27;45477;-54
2022/09/02 02:34:43;;;;;;;;;8.40;8.40;;;;;24.07;38.54;100594.19;5096380;27;45630;-51
2022/09/02 02:37:11;;;;;;;;;7.20;7.20;;;;;24.17;39.13;100606.38;5095574;27;46472;-52
2022/09/02 02:39:36;;;;;;;;;8.20;7.60;;;;;24.17;38.59;100609.19;5096077;27;45792;-52
2022/09/02 02:42:02;;;;;;;;;9.00;6.25;;;;;24.12;39.31;100604.47;5095976;27;45437;-51
2022/09/02 02:44:28;;;;;;;;;10.00;8.00;;;;;24.09;39.18;100605.94;5094534;27;45493;-52
2022/09/02 02:46:54;;;;;;;;;8.50;8.50;;;;;24.12;38.97;100598.06;5096197;27;45431;-51
2022/09/02 02:49:19;;;;;;;;;9.75;8.00;;;;;24.12;38.67;100598.06;5099460;27;45499;-51
2022/09/02 02:51:45;;;;;;;;;12.25;9.50;;;;;24.11;38.95;100594.41;5099274;27;45337;-55
2022/09/02 02:54:13;;;;;;;;;9.25;8.00;;;;;23.99;39.18;100580.84;5081010;27;45573;-49
2022/09/02 02:56:38;;;;;;;;;9.00;9.00;;;;;24.07;39.02;100582.16;5099231;27;46816;-50
2022/09/02 02:59:04;;;;;;;;;8.00;8.00;;;;;24.05;39.31;100590.00;5099170;27;45319;-52
2022/09/02 03:01:30;;;;;;;;;8.00;8.00;;;;;24.07;39.24;100580.16;5099169;27;45348;-54
2022/09/02 03:03:55;;;;;;;;;8.00;8.00;;;;;24.06;39.35;100581.31;5099845;27;45698;-53
2022/09/02 03:06:21;;;;;;;;;9.25;6.00;;;;;23.80;39.28;100550.09;5099123;27;46065;-51
2022/09/02 03:08:47;;;;;;;;;9.00;7.50;;;;;23.98;39.11;100581.16;5098982;27;45199;-51
2022/09/02 03:11:14;;;;;;;;;9.00;9.00;;;;;23.92;39.64;100578.47;5101939;27;45325;-50
2022/09/02 03:13:39;;;;;;;;;11.00;11.00;;;;;23.71;40.06;100555.56;5118650;27;45469;-49
2022/09/02 03:16:05;;;;;;;;;15.25;14.50;;;;;23.77;40.66;100581.50;5100801;27;46681;-52
2022/09/02 03:18:31;;;;;;;;;17.50;17.50;;;;;23.77;40.79;100575.91;5100933;27;45804;-54
2022/09/02 03:20:57;;;;;;;;;21.20;19.20;;;;;23.70;41.75;100579.09;5119491;27;45337;-54
2022/09/02 03:23:22;;;;;;;;;19.75;17.50;;;;;23.58;42.44;100573.97;5119613;27;45432;-55
2022/09/02 03:25:48;;;;;;;;;16.00;16.00;;;;;23.42;42.37;100554.59;5118819;27;45859;-50
2022/09/02 03:28:14;;;;;;;;;25.00;22.00;;;;;23.47;42.96;100578.06;5119121;27;45743;-51
2022/09/02 03:30:39;;;;;;;;;19.75;19.00;;;;;23.40;42.74;100578.44;5119132;27;45400;-51
2022/09/02 03:33:05;;;;;;;;;24.50;17.50;;;;;23.32;42.86;100553.94;5101090;27;45354;-50
2022/09/02 03:35:31;;;;;;;;;20.75;18.00;;;;;23.29;42.99;100541.34;5100395;27;46433;-52
2022/09/02 03:37:57;;;;;;;;;15.60;15.20;;;;;23.49;42.74;100575.78;5119139;27;45313;-50
2022/09/02 03:40:25;;;;;;;;;22.60;18.80;;;;;23.44;43.43;100567.47;5119176;27;45428;-51
2022/09/02 03:42:50;;;;;;;;;17.40;17.40;;;;;23.22;43.28;100530.50;5118918;27;45746;-51
2022/09/02 03:45:16;;;;;;;;;17.50;16.50;;;;;23.33;43.37;100556.44;5100706;27;46701;-49
2022/09/02 03:47:49;;;;;;;;;16.75;15.50;;;;;23.15;43.12;100511.31;5118777;27;45401;-54
2022/09/02 03:50:16;;;;;;;;;21.80;18.60;;;;;23.27;43.29;100543.63;5117784;27;45427;-49
2022/09/02 03:52:42;;;;;;;;;19.40;17.00;;;;;23.05;43.84;100528.25;5119312;27;45392;-50
2022/09/02 03:55:07;;;;;;;;;17.25;16.25;;;;;23.04;43.44;100514.56;5100152;27;45558;-53
2022/09/02 03:57:34;;;;;;;;;13.25;12.25;;;;;23.09;43.93;100523.72;5073574;27;45345;-52
2022/09/02 04:00:00;;;;;;;;;16.80;15.20;;;;;23.12;44.13;100537.09;5083268;27;45412;-49
2022/09/02 04:02:26;;;;;;;;;15.00;14.60;;;;;23.18;44.31;100539.81;5079762;27;45512;-50
2022/09/02 04:04:51;;;;;;;;;18.50;16.00;;;;;22.97;44.06;100521.38;5098071;27;46329;-51
2022/09/02 04:07:17;;;;;;;;;15.75;13.50;;;;;23.09;44.19;100543.31;5098498;27;45323;-50
2022/09/02 04:09:42;;;;;;;;;14.00;12.50;;;;;23.07;44.21;100544.75;5098308;27;45561;-53
2022/09/02 04:12:08;;;;;;;;;16.25;16.25;;;;;23.17;44.15;100538.16;5097981;27;45593;-49
2022/09/02 04:14:33;;;;;;;;;14.75;14.75;;;;;23.01;44.21;100522.41;5097819;27;46757;-51
2022/09/02 04:16:58;;;;;;;;;15.50;15.50;;;;;23.26;44.14;100553.16;5098110;27;45444;-55
2022/09/02 04:19:24;;;;;;;;;14.50;12.75;;;;;23.14;44.36;100545.19;5098028;27;45451;-53
2022/09/02 04:21:49;;;;;;;;;19.25;15.75;;;;;23.14;44.93;100546.03;5098061;27;45618;-52
2022/09/02 04:24:15;;;;;;;;;16.50;13.50;;;;;23.08;45.02;100541.66;5097582;27;45995;-49
2022/09/02 04:26:40;;;;;;;;;14.00;14.00;;;;;22.96;45.48;100518.88;5098051;27;45415;-51
2022/09/02 04:29:08;;;;;;;;;20.50;15.00;;;;;22.97;46.22;100542.91;5097916;27;45389;-54
2022/09/02 04:31:34;;;;;;;;;15.20;13.60;;;;;22.92;46.58;100538.22;5098091;27;45534;-51
2022/09/02 04:33:59;;;;;;;;;15.00;14.80;;;;;22.82;47.11;100529.97;5079787;27;46514;-51
2022/09/02 04:36:25;;;;;;;;;12.00;11.00;;;;;22.61;47.62;100514.28;5097589;27;45191;-53
2022/09/02 04:38:51;;;;;;;;;14.25;11.50;;;;;22.79;47.60;100541.75;5062796;27;45452;-51
2022/09/02 04:41:20;;;;;;;;;12.80;11.80;;;;;22.71;48.28;100546.03;5098045;27;45371;-52
2022/09/02 04:43:45;;;;;;;;;14.20;12.80;;;;;22.82;49.00;100563.53;5097341;27;46606;-54
2022/09/02 04:46:12;;;;;;;;;13.00;13.00;;;;;22.83;49.21;100562.44;5097655;27;45420;-52
2022/09/02 04:48:38;;;;;;;;;11.80;11.80;;;;;22.85;48.85;100558.16;5097869;27;45807;-50
2022/09/02 04:51:07;;;;;;;;;15.50;13.25;;;;;22.78;49.56;100534.50;5097923;27;45421;-52
2022/09/02 04:53:32;;;;;;;;;12.40;12.40;;;;;22.94;49.25;100543.53;5097485;27;46221;-53
2022/09/02 04:55:58;;;;;;;;;15.25;13.75;;;;;22.77;51.03;100535.66;5097620;27;45410;-52
2022/09/02 04:58:23;;;;;;;;;13.25;12.25;;;;;22.56;51.56;100531.13;5096603;27;45510;-51
2022/09/02 05:00:49;;;;;;;;;12.50;10.50;;;;;22.39;52.90;100512.00;5098776;27;45418;-54
2022/09/02 05:03:15;;;;;;;;;13.00;13.00;;;;;22.27;53.01;100520.81;5116710;27;45691;-55
2022/09/02 05:05:40;;;;;;;;;14.50;14.50;;;;;22.31;53.95;100516.28;5118305;27;45373;-52
2022/09/02 05:08:06;;;;;;;;;16.25;14.50;;;;;21.75;54.90;100456.25;5116454;27;45305;-51
2022/09/02 05:10:31;;;;;;;;;12.50;12.50;;;;;22.13;55.00;100522.63;5117562;27;45230;-53
2022/09/02 05:12:58;;;;;;;;;13.25;11.75;;;;;22.01;55.39;100520.25;5101912;27;45397;-50
2022/09/02 05:15:24;;;;;;;;;10.20;10.20;;;;;21.99;55.51;100528.91;5062127;27;45524;-51
2022/09/02 05:17:49;;;;;;;;;15.25;14.00;;;;;22.00;55.32;100519.44;5097199;27;45320;-52
2022/09/02 05:20:15;;;;;;;;;11.25;9.25;;;;;21.94;55.47;100510.25;5079511;27;45530;-54
2022/09/02 05:22:42;;;;;;;;;13.75;10.25;;;;;22.01;55.34;100537.00;5097087;27;45396;-52
2022/09/02 05:25:08;;;;;;;;;12.00;10.40;;;;;21.81;55.62;100541.66;5096382;27;45355;-53
2022/09/02 05:27:34;;;;;;;;;14.20;11.60;;;;;21.71;55.47;100520.25;5078951;27;45412;-52
2022/09/02 05:29:59;;;;;;;;;11.75;11.25;;;;;21.92;55.43;100540.44;5097027;27;45381;-51
2022/09/02 05:32:26;;;;;;;;;13.75;13.00;;;;;21.89;55.34;100549.41;5095349;27;45644;-55
2022/09/02 05:34:53;;;;;;;;;13.20;13.20;;;;;21.97;55.03;100547.13;5062111;27;45377;-52
2022/09/02 05:37:18;;;;;;;;;11.20;11.20;;;;;22.03;54.61;100545.91;5078706;27;45410;-54
2022/09/02 05:39:44;;;;;;;;;11.75;11.25;;;;;21.76;55.46;100519.34;5097064;27;45271;-54
2022/09/02 05:42:09;;;;;;;;;12.50;9.50;;;;;21.96;54.92;100537.91;5096134;27;46667;-54
2022/09/02 05:44:35;;;;;;;;;13.00;11.75;;;;;21.85;54.50;100539.13;5096754;27;45863;-56
2022/09/02 05:47:01;;;;;;;;;10.75;10.75;;;;;21.80;54.20;100546.44;5078496;27;45386;-52
2022/09/02 05:49:26;;;;;;;;;9.00;9.00;;;;;21.83;53.90;100533.00;5096687;27;45540;-53
2022/09/02 05:51:54;;;;;;;;;12.50;11.25;;;;;21.77;53.84;100530.25;5096456;27;46138;-52
2022/09/02 05:54:23;;;;;;;;;9.00;9.00;;;;;21.99;53.17;100534.50;5078142;27;45404;-51
2022/09/02 05:56:50;;;;;;;;;11.60;11.40;;;;;21.91;53.05;100504.41;5096402;27;45208;-51
2022/09/02 05:59:15;;;;;;;;;11.00;10.60;;;;;21.96;52.56;100523.94;5078239;27;45414;-52
2022/09/02 06:01:41;;;;;;;;;13.75;12.75;;;;;22.05;52.77;100535.31;5077956;27;45420;-50
2022/09/02 06:04:07;;;;;;;;;14.50;14.00;;;;;22.02;52.48;100531.13;5095899;27;45229;-53
2022/09/02 06:06:33;;;;;;;;;10.00;10.00;;;;;21.91;52.60;100535.16;5096682;27;45247;-49
2022/09/02 06:08:59;;;;;;;;;13.40;12.20;;;;;21.65;52.63;100524.19;5078071;27;45422;-49
2022/09/02 06:11:25;;;;;;;;;12.00;11.40;;;;;21.82;52.40;100523.78;5080031;27;45937;-53
2022/09/02 06:13:51;;;;;;;;;10.50;10.25;;;;;21.85;52.34;100542.75;5098104;27;45404;-50
2022/09/02 06:16:18;;;;;;;;;13.60;13.40;;;;;21.78;52.82;100531.09;5098453;27;45853;-52
2022/09/02 06:18:44;;;;;;;;;15.00;14.00;;;;;21.74;52.72;100514.09;5098162;27;45292;-55
2022/09/02 06:21:10;;;;;;;;;11.20;11.20;;;;;21.83;52.98;100536.63;5116394;27;46862;-50
2022/09/02 06:23:37;;;;;;;;;11.00;11.00;;;;;21.84;52.63;100549.47;5119791;27;45301;-56
2022/09/02 06:26:03;;;;;;;;;13.00;12.40;;;;;21.76;52.74;100542.56;5120177;27;45387;-52
2022/09/02 06:28:28;;;;;;;;;16.25;15.50;;;;;21.89;52.48;100543.81;5120569;27;45424;-53
2022/09/02 06:30:54;;;;;;;;;13.50;12.25;;;;;21.85;52.38;100539.13;5120238;27;46373;-50
2022/09/02 06:33:19;;;;;;;;;14.00;14.00;;;;;21.83;52.10;100517.09;5120454;27;45324;-53
2022/09/02 06:35:45;;;;;;;;;15.25;15.25;;;;;21.84;52.10;100520.69;5102072;27;45375;-55
2022/09/02 06:38:12;;;;;;;;;14.00;13.50;;;;;22.01;51.89;100539.81;5102241;27;45270;-53
2022/09/02 06:40:46;;;;;;;;;13.80;13.20;;;;;21.99;51.70;100534.50;5120226;27;45518;-54
2022/09/02 06:43:11;;;;;;;;;13.20;12.00;;;;;21.78;51.71;100501.19;5102051;27;45312;-51
2022/09/02 06:45:40;;;;;;;;;13.75;12.50;;;;;22.03;51.78;100535.59;5120420;27;45950;-49
2022/09/02 06:48:06;;;;;;;;;11.60;10.60;;;;;21.98;51.78;100532.84;5101670;27;45352;-49
2022/09/02 06:50:32;;;;;;;;;13.50;13.50;;;;;22.07;51.57;100527.44;5120004;27;45757;-51
2022/09/02 06:52:57;;;;;;;;;15.50;13.50;;;;;22.15;51.21;100537.16;5120145;27;45397;-50
2022/09/02 06:55:23;;;;;;;;;14.25;14.25;;;;;22.18;51.20;100519.78;5119999;27;45604;-52
2022/09/02 06:57:48;;;;;;;;;13.50;13.00;;;;;22.26;50.84;100524.75;5120346;27;45447;-50
2022/09/02 07:00:15;;;;;;;;;20.00;14.25;;;;;22.23;50.96;100522.53;5120010;27;45794;-49
2022/09/02 07:02:41;;;;;;;;;13.00;11.40;;;;;22.10;50.36;100520.44;5119720;27;45476;-55
2022/09/02 07:05:13;;;;;;;;;15.00;14.00;;;;;22.05;50.89;100524.94;5101686;27;45313;-50
2022/09/02 07:07:40;;;;;;;;;10.00;10.00;;;;;22.05;50.86;100513.78;5120180;27;45248;-51
2022/09/02 07:10:07;;;;;;;;;12.80;12.20;;;;;22.18;50.54;100531.81;5119489;27;45772;-52
2022/09/02 07:12:36;;;;;;;;;12.20;11.00;;;;;22.13;51.07;100534.66;5107901;27;45396;-49
2022/09/02 07:15:02;;;;;;;;;12.40;12.40;;;;;22.20;50.53;100531.53;5099603;27;45279;-54
2022/09/02 07:17:27;;;;;;;;;12.50;12.50;;;;;22.14;49.71;100529.91;5081002;27;45392;-49
2022/09/02 07:19:56;;;;;;;;;11.75;10.00;;;;;22.09;50.38;100525.19;5098955;27;45940;-54
2022/09/02 07:22:21;;;;;;;;;7.20;7.20;;;;;22.10;50.37;100517.66;5098891;27;45363;-50
2022/09/02 07:24:47;;;;;;;;;13.00;13.00;;;;;22.19;50.04;100521.44;5098524;27;45468;-52
2022/09/02 07:27:13;;;;;;;;;11.25;11.25;;;;;22.19;49.81;100505.53;5098876;27;45480;-53
2022/09/02 07:29:40;;;;;;;;;11.80;10.60;;;;;22.13;49.88;100505.88;5096831;27;46533;-50
2022/09/02 07:32:05;;;;;;;;;12.80;11.60;;;;;22.17;49.60;100505.00;5101617;27;45381;-51
2022/09/02 07:34:31;;;;;;;;;12.75;10.25;;;;;22.12;50.00;100516.22;5079208;27;45350;-49
2022/09/02 07:36:56;;;;;;;;;12.75;10.50;;;;;22.05;49.65;100488.63;5083241;27;45988;-53
2022/09/02 07:39:22;;;;;;;;;12.50;10.00;;;;;22.39;49.38;100513.97;5118140;27;46564;-57
2022/09/02 07:41:49;;;;;;;;;12.00;11.25;;;;;22.20;49.52;100498.81;5102769;27;45355;-56
2022/09/02 07:44:14;;;;;;;;;13.40;12.20;;;;;22.10;49.44;100504.53;5096727;27;45396;-55
2022/09/02 07:46:40;;;;;;;;;8.75;8.75;;;;;22.17;49.41;100526.50;5099488;27;45686;-55
2022/09/02 07:49:07;;;;;;;;;9.00;9.00;;;;;22.25;49.19;100531.44;5115425;27;45458;-51
2022/09/02 07:51:33;;;;;;;;;13.80;11.40;;;;;22.21;49.27;100533.19;5100379;27;45478;-51
2022/09/02 07:53:59;;;;;;;;;14.40;12.80;;;;;22.18;48.87;100529.03;5100543;27;45413;-50
2022/09/02 07:56:25;;;;;;;;;10.00;10.00;;;;;22.13;48.61;100503.91;5100444;27;45420;-52
2022/09/02 07:58:50;;;;;;;;;11.50;10.75;;;;;22.39;48.67;100533.53;5118530;27;46531;-56
2022/09/02 08:01:16;;;;;;;;;13.00;11.50;;;;;22.41;48.00;100528.50;5119046;27;45287;-53
2022/09/02 08:03:43;;;;;;;;;8.00;8.00;;;;;22.41;47.94;100540.50;5118815;27;45356;-53
2022/09/02 08:06:09;;;;;;;;;12.40;10.80;;;;;22.47;47.80;100547.69;5118928;27;45486;-55
2022/09/02 08:08:35;;;;;;;;;11.40;8.20;;;;;22.46;47.42;100551.63;5118688;27;45638;-51
2022/09/02 08:11:01;;;;;;;;;13.00;10.80;;;;;22.52;47.59;100551.59;5115181;27;45478;-52
2022/09/02 08:13:26;;;;;;;;;8.75;8.75;;;;;22.38;47.66;100527.13;5101619;27;45350;-54
2022/09/02 08:15:53;;;;;;;;;10.50;8.25;;;;;22.30;47.28;100527.78;5098269;27;45350;-52
2022/09/02 08:18:18;;;;;;;;;9.60;9.60;;;;;22.42;47.54;100563.72;5098155;27;46258;-54
2022/09/02 08:20:44;;;;;;;;;10.50;10.00;;;;;22.23;47.42;100530.06;5081911;27;45888;-54
2022/09/02 08:23:10;;;;;;;;;11.50;11.50;;;;;22.43;47.33;100556.97;5098159;27;45427;-53
2022/09/02 08:25:36;;;;;;;;;11.40;9.80;;;;;22.45;47.76;100565.91;5043062;27;45353;-51
2022/09/02 08:28:01;;;;;;;;;12.00;12.00;;;;;22.50;48.88;100587.41;5097555;27;46431;-54
2022/09/02 08:30:27;;;;;;;;;16.00;13.00;;;;;22.51;48.62;100605.84;5079502;27;45321;-51
2022/09/02 08:32:52;;;;;;;;;13.00;13.00;;;;;22.41;49.40;100609.56;5097970;27;45367;-52
2022/09/02 08:35:18;;;;;;;;;10.50;10.00;;;;;22.38;50.05;100611.00;5098160;27;45436;-52
2022/09/02 08:37:44;;;;;;;;;15.50;13.25;;;;;22.47;49.39;100628.78;5068170;27;46469;-53
2022/09/02 08:40:15;;;;;;;;;11.75;11.75;;;;;22.33;49.54;100597.91;5069732;28;45538;-50
2022/09/02 08:42:48;;;;;;;;;13.20;13.20;;;;;22.48;49.99;100615.66;5059135;28;45376;-51
2022/09/02 08:45:26;;;;;;;;;11.20;9.20;;;;;22.49;50.20;100625.69;5057651;28;45576;-48
2022/09/02 08:48:01;;;;;;;;;15.60;13.80;;;;;22.42;51.04;100619.63;5077170;28;46655;-51
2022/09/02 08:50:26;;;;;;;;;11.40;10.40;;;;;22.45;51.78;100628.25;5059257;28;45291;-51
2022/09/02 08:53:21;;;;;;;;;15.75;12.50;;;;;22.49;51.37;100628.50;5059013;28;45391;-54
2022/09/02 08:55:54;;;;;;;;;17.60;14.40;;;;;22.21;51.77;100619.84;5026739;28;45320;-56
2022/09/02 08:58:27;;;;;;;;;12.80;11.60;;;;;22.11;51.97;100606.78;5062490;27;45859;-50
2022/09/02 09:01:17;;;;;;;;;14.00;13.20;;;;;22.30;51.98;100622.81;5061791;28;45438;-54
2022/09/02 09:04:13;;;;;;;;;17.40;15.40;;;;;22.42;51.52;100628.00;5042669;28;45363;-49
2022/09/02 09:07:07;;;;;;;;;16.40;14.60;;;;;22.46;51.37;100609.50;5075840;28;45429;-54
2022/09/02 09:10:10;;;;;;;;;16.80;14.20;;;;;22.57;51.14;100616.69;5059248;28;47059;-48
2022/09/02 09:12:41;;;;;;;;;15.20;14.60;;;;;22.68;50.76;100608.19;5063161;27;45516;-50
2022/09/02 09:15:29;;;;;;;;;14.40;12.60;;;;;22.67;50.60;100590.56;5096092;27;45851;-54
2022/09/02 09:17:59;;;;;;;;;17.20;16.20;;;;;22.70;50.38;100592.78;5096354;27;45297;-50
2022/09/02 09:20:34;;;;;;;;;16.40;15.40;;;;;22.77;50.68;100594.38;5077668;27;45812;-50
2022/09/02 09:23:00;;;;;;;;;16.60;15.60;;;;;22.67;50.14;100573.78;5078467;27;45431;-53
2022/09/02 09:25:30;;;;;;;;;17.60;16.20;;;;;22.86;50.37;100593.44;5076971;27;45545;-51
2022/09/02 09:27:59;;;;;;;;;14.20;12.60;;;;;22.98;50.30;100600.53;5057929;28;45478;-53
2022/09/02 09:30:25;;;;;;;;;15.80;14.60;;;;;23.08;49.46;100602.38;5074680;28;46451;-51
2022/09/02 09:32:56;;;;;;;;;17.50;15.75;;;;;23.15;49.54;100592.47;5074781;27;45931;-55
2022/09/02 09:35:22;;;;;;;;;20.80;18.20;;;;;23.24;49.21;100591.78;5060420;27;45291;-53
2022/09/02 09:37:51;;;;;;;;;13.40;13.00;;;;;23.29;48.45;100572.13;5056355;28;45911;-53
2022/09/02 09:40:17;;;;;;;;;14.40;12.20;;;;;23.28;48.24;100564.88;5074444;28;46762;-49
2022/09/02 09:42:42;;;;;;;;;18.00;16.75;;;;;23.45;47.65;100572.78;5074206;28;45343;-54
2022/09/02 09:45:36;;;;;;;;;16.25;15.25;;;;;23.44;48.11;100553.47;5056679;28;45410;-50
2022/09/02 09:48:18;;;;;;;;;14.20;13.80;;;;;23.44;47.33;100553.47;5058475;27;45385;-53
2022/09/02 09:50:47;;;;;;;;;14.60;13.60;;;;;23.55;48.34;100571.78;5073931;28;46070;-54
2022/09/02 09:53:20;;;;;;;;;15.60;15.00;;;;;23.60;47.14;100574.50;5050838;27;45384;-50
2022/09/02 09:56:04;;;;;;;;;14.80;13.80;;;;;23.47;47.29;100542.47;5056125;28;45536;-52
2022/09/02 09:58:33;;;;;;;;;14.20;12.40;;;;;23.68;46.71;100571.00;5074593;28;45465;-54
2022/09/02 10:01:20;;;;;;;;;16.20;14.00;;;;;23.68;46.80;100572.97;5073598;27;45457;-54
2022/09/02 10:03:55;;;;;;;;;11.20;11.20;;;;;23.73;46.57;100564.47;5056311;28;45442;-55
2022/09/02 10:06:30;;;;;;;;;14.40;13.40;;;;;23.75;46.74;100579.00;5074265;28;45457;-52
2022/09/02 10:09:23;;;;;;;;;18.40;16.40;;;;;23.62;47.07;100535.81;5074535;28;45315;-49
2022/09/02 10:11:57;;;;;;;;;19.00;17.00;;;;;23.61;46.81;100564.97;5063413;28;46280;-55
2022/09/02 10:14:23;;;;;;;;;15.60;15.20;;;;;23.64;47.10;100557.91;5073498;27;45325;-54
2022/09/02 10:16:55;;;;;;;;;21.75;16.25;;;;;23.66;47.43;100559.28;5056343;28;45429;-52
2022/09/02 10:19:40;;;;;;;;;22.80;17.40;;;;;23.66;47.84;100559.28;5081853;27;45504;-53
2022/09/02 10:22:32;;;;;;;;;15.20;15.20;;;;;23.15;48.53;100544.91;5094232;27;45736;-52
2022/09/02 10:25:30;;;;;;;;;20.20;19.00;;;;;22.93;49.02;100527.88;5072203;27;45412;-52
2022/09/02 10:28:20;;;;;;;;;14.40;14.00;;;;;23.21;48.62;100545.66;5040308;28;45464;-51
2022/09/02 10:31:09;;;;;;;;;17.40;15.40;;;;;23.18;48.31;100523.88;5069571;28;45268;-51
2022/09/02 10:33:36;;;;;;;;;22.60;19.60;;;;;23.28;48.20;100542.47;5070083;28;45933;-52
2022/09/02 10:36:07;;;;;;;;;21.00;17.00;;;;;23.25;48.72;100543.06;5073817;28;45371;-54
2022/09/02 10:38:43;;;;;;;;;19.00;17.60;;;;;23.29;48.74;100536.59;5073161;27;45361;-52
2022/09/02 10:41:45;;;;;;;;;22.00;18.20;;;;;23.34;49.39;100549.69;5056165;28;45550;-50
2022/09/02 10:44:33;;;;;;;;;18.00;18.00;;;;;23.35;49.38;100548.56;5072515;28;45847;-49
2022/09/02 10:47:05;;;;;;;;;18.00;17.80;;;;;23.37;49.34;100549.06;5074184;28;45883;-51
2022/09/02 10:49:45;;;;;;;;;21.00;20.40;;;;;23.42;49.22;100546.22;5075086;28;45367;-51
2022/09/02 10:52:29;;;;;;;;;21.80;20.40;;;;;23.48;49.36;100546.94;5075483;28;45326;-49
2022/09/02 10:55:23;;;;;;;;;18.60;17.80;;;;;23.47;48.87;100536.06;5089340;27;45886;-53
2022/09/02 10:58:03;;;;;;;;;26.60;21.80;;;;;23.36;49.73;100530.63;5093737;27;45366;-51
2022/09/02 11:00:29;;;;;;;;;17.40;16.60;;;;;23.39;49.13;100531.97;5070672;28;45432;-52
2022/09/02 11:03:16;;;;;;;;;20.75;16.00;;;;;23.29;48.87;100516.16;5053299;28;45530;-53
2022/09/02 11:05:54;;;;;;;;;19.00;18.40;;;;;23.39;48.92;100535.63;5055701;28;46920;-52
2022/09/02 11:08:50;;;;;;;;;17.00;16.20;;;;;23.43;49.16;100538.66;5074036;27;46067;-52
2022/09/02 11:11:36;;;;;;;;;18.80;18.00;;;;;23.15;48.74;100493.66;5081613;27;45317;-54
2022/09/02 11:14:01;;;;;;;;;16.00;15.80;;;;;23.41;48.92;100533.34;5088360;27;45375;-51
2022/09/02 11:16:26;;;;;;;;;17.25;17.25;;;;;23.41;48.94;100526.91;5096445;27;45654;-54
2022/09/02 11:19:04;;;;;;;;;20.75;18.75;;;;;23.32;49.10;100520.34;5096824;27;45438;-53
2022/09/02 11:21:39;;;;;;;;;23.00;19.20;;;;;23.35;50.23;100514.97;5097378;27;45664;-49